createdAt,value
2019-03-09T00:00:00.337Z,7.42
2019-03-09T00:02:33.851Z,6.12
2019-03-09T00:05:05.821Z,4.90
2019-03-09T00:07:37.158Z,5.65
2019-03-09T00:10:08.873Z,6.45
2019-03-09T00:12:40.621Z,7.10
2019-03-09T00:15:11.756Z,5.92
2019-03-09T00:17:43.934Z,5.62
2019-03-09T00:20:15.260Z,5.67
2019-03-09T00:22:49.815Z,6.30
2019-03-09T00:25:25.134Z,5.65
2019-03-09T00:28:06.505Z,5.97
2019-03-09T00:30:49.250Z,5.80
2019-03-09T00:33:20.915Z,7.75
2019-03-09T00:35:53.048Z,7.33
2019-03-09T00:38:24.710Z,6.65
2019-03-09T00:40:57.003Z,7.47
2019-03-09T00:43:28.629Z,8.78
2019-03-09T00:46:00.806Z,6.08
2019-03-09T00:48:32.970Z,8.88
2019-03-09T00:51:04.510Z,6.15
2019-03-09T00:53:36.002Z,5.75
2019-03-09T00:56:07.629Z,7.53
2019-03-09T00:58:38.936Z,6.62
2019-03-09T01:01:10.842Z,6.12
2019-03-09T01:03:43.133Z,9.68
2019-03-09T01:06:15.115Z,5.65
2019-03-09T01:08:46.693Z,6.33
2019-03-09T01:11:18.231Z,6.50
2019-03-09T01:13:49.895Z,6.08
2019-03-09T01:16:21.529Z,10.32
2019-03-09T01:18:53.088Z,6.12
2019-03-09T01:21:25.174Z,7.92
2019-03-09T01:23:57.209Z,8.60
2019-03-09T01:26:29.613Z,9.60
2019-03-09T01:29:01.276Z,9.38
2019-03-09T01:31:33.044Z,8.75
2019-03-09T01:34:04.383Z,7.08
2019-03-09T01:36:35.891Z,9.08
2019-03-09T01:39:08.328Z,7.78
2019-03-09T01:41:40.643Z,7.78
2019-03-09T01:44:12.027Z,11.85
2019-03-09T01:46:44.074Z,6.40
2019-03-09T01:49:15.313Z,8.10
2019-03-09T01:51:46.867Z,8.88
2019-03-09T01:54:18.651Z,7.50
2019-03-09T01:56:50.519Z,7.45
2019-03-09T01:59:22.374Z,7.87
2019-03-09T02:01:54.966Z,7.28
2019-03-09T02:04:26.567Z,7.67
2019-03-09T02:06:58.131Z,10.43
2019-03-09T02:09:29.559Z,8.43
2019-03-09T02:12:01.633Z,9.80
2019-03-09T02:14:33.301Z,5.83
2019-03-09T02:17:05.464Z,8.33
2019-03-09T02:19:37.308Z,9.23
2019-03-09T02:22:08.578Z,9.13
2019-03-09T02:24:40.456Z,11.08
2019-03-09T02:27:12.413Z,7.83
2019-03-09T02:29:44.054Z,7.60
2019-03-09T02:32:15.595Z,10.32
2019-03-09T02:34:47.167Z,9.30
2019-03-09T02:37:19.072Z,7.25
2019-03-09T02:40:09.932Z,5.67
2019-03-09T02:42:41.275Z,10.80
2019-03-09T02:45:15.284Z,8.78
2019-03-09T02:47:46.276Z,10.55
2019-03-09T02:50:17.787Z,7.75
2019-03-09T02:52:49.405Z,6.30
2019-03-09T02:55:20.439Z,7.80
2019-03-09T02:57:52.253Z,10.35
2019-03-09T03:00:23.256Z,7.25
2019-03-09T03:03:01.403Z,6.87
2019-03-09T03:05:32.716Z,6.45
2019-03-09T03:08:04.279Z,6.25
2019-03-09T03:10:36.243Z,5.90
2019-03-09T03:13:07.457Z,5.87
2019-03-09T03:15:39.421Z,8.68
2019-03-09T03:18:11.460Z,6.62
2019-03-09T03:20:43.073Z,7.70
2019-03-09T03:23:14.723Z,6.92
2019-03-09T03:25:46.555Z,6.37
2019-03-09T03:28:18.453Z,9.48
2019-03-09T03:30:50.020Z,7.15
2019-03-09T03:33:21.543Z,4.67
2019-03-09T03:35:52.539Z,7.67
2019-03-09T03:38:25.058Z,8.78
2019-03-09T03:40:56.480Z,5.85
2019-03-09T03:43:27.545Z,5.47
2019-03-09T03:45:59.101Z,5.47
2019-03-09T03:48:30.753Z,6.67
2019-03-09T03:51:02.114Z,5.45
2019-03-09T03:53:33.421Z,6.75
2019-03-09T03:56:05.494Z,5.47
2019-03-09T03:58:36.679Z,5.50
2019-03-09T04:01:08.975Z,7.45
2019-03-09T04:03:40.778Z,8.38
2019-03-09T04:06:12.678Z,6.20
2019-03-09T04:08:44.663Z,5.45
2019-03-09T04:11:16.278Z,5.37
2019-03-09T04:13:48.180Z,9.83
2019-03-09T04:16:19.523Z,7.97
2019-03-09T04:18:50.768Z,9.05
2019-03-09T04:21:22.655Z,5.60
2019-03-09T04:23:53.987Z,7.53
2019-03-09T04:26:25.722Z,8.58
2019-03-09T04:28:57.365Z,6.08
2019-03-09T04:31:29.118Z,4.05
2019-03-09T04:34:02.771Z,7.00
2019-03-09T04:36:34.094Z,5.20
2019-03-09T04:39:07.601Z,6.17
2019-03-09T04:41:41.284Z,5.37
2019-03-09T04:44:12.936Z,4.42
2019-03-09T04:46:44.618Z,7.35
2019-03-09T04:49:16.402Z,4.78
2019-03-09T04:51:48.250Z,6.65
2019-03-09T04:54:19.566Z,5.45
2019-03-09T04:56:51.134Z,3.72
2019-03-09T04:59:22.993Z,5.60
2019-03-09T05:01:54.544Z,5.00
2019-03-09T05:04:51.376Z,5.70
2019-03-09T05:07:33.898Z,4.45
2019-03-09T05:10:25.881Z,4.03
2019-03-09T05:13:02.340Z,4.35
2019-03-09T05:15:34.177Z,3.65
2019-03-09T05:18:06.077Z,3.55
2019-03-09T05:20:38.202Z,3.67
2019-03-09T05:23:09.768Z,3.30
2019-03-09T05:25:41.257Z,4.33
2019-03-09T05:28:12.599Z,4.67
2019-03-09T05:30:45.848Z,4.40
2019-03-09T05:33:16.827Z,3.85
2019-03-09T05:35:48.176Z,3.12
2019-03-09T05:38:19.959Z,2.10
2019-03-09T05:40:51.032Z,2.85
2019-03-09T05:43:22.310Z,3.67
2019-03-09T05:45:53.831Z,3.52
2019-03-09T05:48:25.147Z,2.47
2019-03-09T05:50:56.144Z,2.62
2019-03-09T05:53:27.727Z,2.02
2019-03-09T05:55:59.247Z,2.60
2019-03-09T05:58:31.949Z,1.92
2019-03-09T06:01:03.223Z,1.30
2019-03-09T06:03:34.983Z,1.15
2019-03-09T06:06:18.474Z,1.25
2019-03-09T06:08:51.245Z,1.47
2019-03-09T06:11:23.019Z,1.20
2019-03-09T06:13:54.571Z,1.27
2019-03-09T06:16:26.289Z,1.98
2019-03-09T06:18:57.309Z,1.32
2019-03-09T06:21:29.372Z,1.32
2019-03-09T06:24:00.354Z,1.80
2019-03-09T06:26:31.617Z,1.42
2019-03-09T06:29:03.040Z,1.65
2019-03-09T06:31:34.034Z,0.98
2019-03-09T06:34:05.709Z,0.95
2019-03-09T06:36:56.309Z,1.10
2019-03-09T06:39:35.175Z,2.27
2019-03-09T06:42:28.829Z,1.17
2019-03-09T06:45:00.177Z,1.25
2019-03-09T06:47:31.728Z,1.35
2019-03-09T06:50:03.132Z,1.37
2019-03-09T06:52:34.480Z,1.85
2019-03-09T06:55:06.972Z,1.27
2019-03-09T06:57:38.603Z,1.62
2019-03-09T07:00:41.918Z,1.98
2019-03-09T07:03:13.652Z,1.25
2019-03-09T07:05:45.328Z,0.90
2019-03-09T07:08:17.076Z,0.70
2019-03-09T07:10:48.938Z,1.23
2019-03-09T07:13:20.715Z,0.70
2019-03-09T07:15:52.535Z,0.60
2019-03-09T07:18:27.540Z,2.20
2019-03-09T07:20:59.146Z,0.80
2019-03-09T07:23:31.062Z,0.83
2019-03-09T07:26:02.344Z,0.80
2019-03-09T07:28:34.002Z,1.13
2019-03-09T07:31:05.537Z,3.63
2019-03-09T07:33:37.205Z,2.50
2019-03-09T07:36:08.865Z,2.10
2019-03-09T07:38:40.235Z,2.07
2019-03-09T07:41:11.240Z,1.73
2019-03-09T07:43:42.246Z,2.80
2019-03-09T07:46:14.821Z,2.10
2019-03-09T07:48:46.391Z,4.97
2019-03-09T07:51:18.236Z,1.90
2019-03-09T07:53:49.605Z,1.77
2019-03-09T07:56:21.600Z,1.80
2019-03-09T07:58:52.979Z,4.10
2019-03-09T08:01:24.260Z,1.73
2019-03-09T08:03:55.305Z,2.97
2019-03-09T08:06:26.638Z,1.43
2019-03-09T08:08:57.689Z,1.77
2019-03-09T08:11:29.699Z,1.70
2019-03-09T08:14:01.004Z,1.30
2019-03-09T08:16:35.714Z,2.03
2019-03-09T08:19:05.756Z,1.97
2019-03-09T08:21:37.748Z,1.50
2019-03-09T08:24:10.622Z,3.40
2019-03-09T08:26:42.307Z,1.23
2019-03-09T08:29:13.328Z,0.80
2019-03-09T08:31:44.614Z,1.50
2019-03-09T08:34:16.157Z,2.23
2019-03-09T08:36:47.921Z,3.33
2019-03-09T08:39:19.325Z,2.50
2019-03-09T08:41:50.640Z,1.80
2019-03-09T08:44:22.207Z,2.23
2019-03-09T08:46:53.250Z,3.10
2019-03-09T08:49:24.815Z,3.00
2019-03-09T08:51:56.484Z,2.57
2019-03-09T08:54:28.218Z,1.53
2019-03-09T08:56:59.763Z,1.60
2019-03-09T08:59:31.295Z,1.53
2019-03-09T09:02:03.249Z,2.10
2019-03-09T09:04:34.790Z,5.23
2019-03-09T09:07:07.041Z,9.30
2019-03-09T09:09:38.651Z,5.57
2019-03-09T09:12:10.515Z,7.27
2019-03-09T09:14:41.531Z,3.20
2019-03-09T09:17:13.172Z,8.50
2019-03-09T09:19:44.658Z,14.93
2019-03-09T09:22:16.407Z,15.40
2019-03-09T09:24:48.490Z,11.63
2019-03-09T09:27:20.114Z,8.30
2019-03-09T09:29:51.756Z,5.53
2019-03-09T09:32:23.428Z,13.33
2019-03-09T09:34:55.169Z,6.63
2019-03-09T09:37:27.136Z,6.23
2019-03-09T09:39:59.008Z,3.77
2019-03-09T09:42:30.100Z,5.10
2019-03-09T09:45:01.487Z,5.17
2019-03-09T09:47:32.758Z,4.43
2019-03-09T09:50:03.907Z,4.83
2019-03-09T09:52:35.200Z,2.93
2019-03-09T09:55:08.952Z,4.07
2019-03-09T09:57:40.939Z,2.47
2019-03-09T10:00:16.628Z,3.53
2019-03-09T10:02:49.529Z,4.90
2019-03-09T10:05:21.243Z,7.37
2019-03-09T10:07:52.661Z,3.33
2019-03-09T10:10:23.882Z,2.90
2019-03-09T10:12:56.348Z,5.77
2019-03-09T10:15:27.928Z,6.20
2019-03-09T10:18:00.933Z,3.93
2019-03-09T10:20:33.296Z,4.60
2019-03-09T10:23:05.152Z,3.13
2019-03-09T10:25:36.558Z,3.83
2019-03-09T10:28:08.307Z,6.60
2019-03-09T10:30:39.477Z,4.77
2019-03-09T10:33:11.006Z,6.37
2019-03-09T10:35:42.390Z,4.07
2019-03-09T10:38:14.220Z,5.33
2019-03-09T10:40:45.781Z,3.47
2019-03-09T10:43:17.130Z,4.33
2019-03-09T10:45:48.977Z,4.43
2019-03-09T10:48:20.632Z,5.03
2019-03-09T10:50:52.145Z,4.83
2019-03-09T10:53:23.467Z,5.40
2019-03-09T10:55:54.987Z,3.33
2019-03-09T10:58:26.381Z,2.77
2019-03-09T11:00:57.723Z,4.67
2019-03-09T11:03:30.058Z,4.40
2019-03-09T11:06:01.584Z,5.00
2019-03-09T11:08:33.186Z,3.93
2019-03-09T11:11:04.446Z,4.03
2019-03-09T11:13:35.790Z,4.97
2019-03-09T11:16:07.193Z,3.40
2019-03-09T11:18:38.765Z,7.43
2019-03-09T11:21:10.361Z,6.17
2019-03-09T11:23:42.062Z,3.80
2019-03-09T11:26:14.254Z,4.77
2019-03-09T11:28:45.807Z,4.27
2019-03-09T11:31:17.423Z,9.03
2019-03-09T11:33:50.452Z,4.23
2019-03-09T11:36:21.875Z,4.73
2019-03-09T11:38:53.893Z,6.40
2019-03-09T11:41:25.747Z,4.33
2019-03-09T11:43:57.372Z,4.83
2019-03-09T11:46:29.226Z,5.50
2019-03-09T11:49:00.754Z,4.00
2019-03-09T11:51:32.090Z,5.80
2019-03-09T11:54:03.463Z,4.60
2019-03-09T11:56:35.035Z,4.83
2019-03-09T11:59:07.583Z,4.83
2019-03-09T12:01:39.116Z,4.93
2019-03-09T12:04:11.429Z,4.60
2019-03-09T12:06:43.048Z,3.10
2019-03-09T12:09:14.140Z,2.03
2019-03-09T12:11:57.571Z,4.03
2019-03-09T12:14:28.908Z,5.50
2019-03-09T12:17:00.200Z,4.43
2019-03-09T12:19:32.258Z,3.37
2019-03-09T12:22:03.625Z,5.00
2019-03-09T12:24:35.298Z,4.50
2019-03-09T12:27:06.319Z,2.77
2019-03-09T12:29:37.434Z,2.80
2019-03-09T12:32:08.711Z,2.70
2019-03-09T12:34:40.331Z,4.37
2019-03-09T12:37:11.860Z,2.33
2019-03-09T12:39:43.475Z,3.23
2019-03-09T12:42:15.503Z,3.60
2019-03-09T12:44:47.223Z,3.57
2019-03-09T12:47:19.167Z,4.40
2019-03-09T12:49:50.987Z,3.50
2019-03-09T12:52:23.579Z,3.17
2019-03-09T12:54:55.564Z,4.17
2019-03-09T12:57:26.546Z,2.27
2019-03-09T12:59:58.037Z,1.93
2019-03-09T13:02:29.914Z,2.50
2019-03-09T13:05:01.253Z,1.93
2019-03-09T13:07:32.278Z,3.20
2019-03-09T13:10:03.979Z,2.63
2019-03-09T13:12:35.824Z,2.50
2019-03-09T13:15:07.388Z,1.90
2019-03-09T13:17:38.763Z,2.77
2019-03-09T13:20:10.304Z,2.60
2019-03-09T13:22:41.757Z,1.57
2019-03-09T13:25:13.625Z,2.00
2019-03-09T13:27:45.079Z,1.57
2019-03-09T13:30:19.341Z,2.47
2019-03-09T13:32:51.782Z,1.63
2019-03-09T13:35:23.248Z,2.27
2019-03-09T13:37:54.635Z,2.75
2019-03-09T13:40:26.666Z,2.53
2019-03-09T13:42:58.307Z,1.57
2019-03-09T13:45:29.772Z,3.23
2019-03-09T13:48:01.025Z,3.17
2019-03-09T13:50:32.697Z,2.67
2019-03-09T13:53:03.989Z,2.93
2019-03-09T13:55:35.306Z,3.27
2019-03-09T13:58:06.540Z,2.70
2019-03-09T14:00:40.850Z,3.20
2019-03-09T14:03:11.231Z,3.10
2019-03-09T14:05:43.013Z,2.20
2019-03-09T14:08:14.929Z,0.73
2019-03-09T14:10:46.936Z,1.63
2019-03-09T14:13:19.198Z,3.10
2019-03-09T14:15:50.323Z,2.70
2019-03-09T14:18:21.310Z,1.53
2019-03-09T14:20:53.283Z,1.50
2019-03-09T14:23:24.811Z,1.30
2019-03-09T14:25:56.347Z,2.70
2019-03-09T14:28:27.724Z,2.50
2019-03-09T14:30:59.403Z,1.77
2019-03-09T14:33:30.891Z,7.60
2019-03-09T14:36:02.566Z,4.80
2019-03-09T14:38:35.311Z,1.70
2019-03-09T14:41:06.807Z,2.70
2019-03-09T14:43:38.054Z,2.07
2019-03-09T14:46:09.585Z,2.47
2019-03-09T14:48:40.570Z,1.70
2019-03-09T14:51:11.912Z,1.40
2019-03-09T14:53:43.466Z,2.00
2019-03-09T14:56:15.344Z,1.77
2019-03-09T14:58:46.912Z,1.47
2019-03-09T15:01:18.409Z,3.53
2019-03-09T15:03:49.710Z,1.70
2019-03-09T15:06:22.128Z,1.93
2019-03-09T15:08:53.295Z,3.00
2019-03-09T15:11:24.918Z,2.53
2019-03-09T15:13:56.797Z,2.63
2019-03-09T15:16:27.871Z,2.73
2019-03-09T15:18:58.987Z,1.80
2019-03-09T15:21:30.336Z,2.57
2019-03-09T15:24:01.850Z,1.27
2019-03-09T15:26:33.129Z,1.50
2019-03-09T15:29:04.882Z,2.30
2019-03-09T15:31:36.210Z,6.90
2019-03-09T15:34:07.575Z,4.17
2019-03-09T15:36:39.226Z,5.57
2019-03-09T15:39:11.238Z,4.20
2019-03-09T15:41:43.140Z,7.23
2019-03-09T15:44:14.145Z,5.00
2019-03-09T15:46:45.430Z,2.57
2019-03-09T15:49:17.450Z,1.60
2019-03-09T15:51:48.754Z,2.00
2019-03-09T15:54:20.838Z,1.67
2019-03-09T15:56:52.438Z,5.70
2019-03-09T15:59:24.024Z,2.70
2019-03-09T16:01:55.693Z,2.47
2019-03-09T16:04:26.693Z,1.67
2019-03-09T16:06:58.685Z,2.67
2019-03-09T16:09:30.212Z,5.03
2019-03-09T16:12:20.956Z,1.60
2019-03-09T16:14:52.687Z,1.73
2019-03-09T16:17:23.954Z,3.87
2019-03-09T16:19:55.513Z,3.17
2019-03-09T16:22:27.204Z,4.30
2019-03-09T16:24:58.533Z,3.07
2019-03-09T16:27:30.105Z,4.17
2019-03-09T16:30:01.721Z,4.95
2019-03-09T16:32:34.984Z,5.12
2019-03-09T16:35:06.577Z,2.60
2019-03-09T16:37:37.836Z,2.33
2019-03-09T16:40:09.915Z,2.55
2019-03-09T16:42:40.974Z,3.40
2019-03-09T16:45:12.824Z,4.40
2019-03-09T16:47:44.139Z,3.67
2019-03-09T16:50:15.872Z,3.80
2019-03-09T16:52:49.112Z,3.83
2019-03-09T16:55:20.513Z,4.72
2019-03-09T16:57:51.801Z,5.87
2019-03-09T17:00:23.289Z,5.23
2019-03-09T17:02:54.296Z,6.05
2019-03-09T17:05:25.599Z,6.20
2019-03-09T17:07:57.399Z,3.40
2019-03-09T17:10:30.491Z,5.28
2019-03-09T17:13:02.029Z,3.98
2019-03-09T17:15:33.424Z,6.00
2019-03-09T17:18:05.177Z,6.25
2019-03-09T17:20:37.184Z,5.30
2019-03-09T17:23:10.246Z,4.05
2019-03-09T17:25:42.217Z,5.80
2019-03-09T17:28:14.089Z,3.43
2019-03-09T17:30:45.151Z,6.40
2019-03-09T17:33:16.932Z,3.73
2019-03-09T17:35:48.260Z,3.55
2019-03-09T17:38:19.610Z,3.60
2019-03-09T17:40:51.470Z,2.35
2019-03-09T17:43:23.320Z,1.67
2019-03-09T17:45:55.866Z,2.83
2019-03-09T17:48:27.296Z,3.27
2019-03-09T17:50:58.889Z,1.65
2019-03-09T17:53:30.153Z,1.85
2019-03-09T17:56:01.772Z,1.47
2019-03-09T17:58:33.048Z,0.95
2019-03-09T18:01:04.706Z,0.55
2019-03-09T18:03:36.665Z,1.95
2019-03-09T18:06:08.277Z,0.68
2019-03-09T18:08:40.764Z,0.50
2019-03-09T18:11:12.558Z,0.50
2019-03-09T18:13:44.130Z,2.35
2019-03-09T18:16:15.696Z,0.82
2019-03-09T18:18:47.313Z,1.95
2019-03-09T18:21:19.638Z,1.50
2019-03-09T18:23:51.339Z,1.22
2019-03-09T18:26:22.884Z,0.50
2019-03-09T18:28:54.879Z,0.93
2019-03-09T18:31:26.874Z,1.98
2019-03-09T18:33:58.150Z,0.70
2019-03-09T18:36:29.090Z,2.17
2019-03-09T18:39:01.077Z,2.50
2019-03-09T18:41:34.584Z,2.05
2019-03-09T18:44:06.317Z,2.70
2019-03-09T18:46:38.030Z,1.85
2019-03-09T18:49:09.386Z,1.00
2019-03-09T18:51:40.665Z,1.47
2019-03-09T18:54:11.981Z,2.27
2019-03-09T18:56:44.083Z,2.85
2019-03-09T18:59:15.417Z,1.65
2019-03-09T19:01:46.948Z,3.60
2019-03-09T19:04:25.159Z,1.22
2019-03-09T19:07:06.555Z,3.58
2019-03-09T19:09:39.953Z,2.15
2019-03-09T19:12:11.555Z,2.50
2019-03-09T19:14:43.127Z,2.25
2019-03-09T19:17:14.654Z,0.95
2019-03-09T19:19:46.193Z,2.00
2019-03-09T19:22:18.746Z,3.85
2019-03-09T19:24:50.505Z,2.80
2019-03-09T19:27:22.500Z,3.77
2019-03-09T19:29:54.122Z,1.45
2019-03-09T19:32:25.604Z,2.55
2019-03-09T19:34:58.586Z,1.95
2019-03-09T19:37:30.118Z,2.87
2019-03-09T19:40:02.281Z,2.42
2019-03-09T19:42:33.941Z,2.83
2019-03-09T19:45:06.160Z,4.60
2019-03-09T19:47:38.245Z,3.98
2019-03-09T19:50:12.983Z,2.45
2019-03-09T19:52:44.617Z,2.55
2019-03-09T19:55:15.926Z,1.57
2019-03-09T19:57:47.231Z,3.67
2019-03-09T20:00:19.269Z,3.02
2019-03-09T20:02:51.161Z,4.50
2019-03-09T20:05:22.921Z,3.70
2019-03-09T20:07:54.986Z,2.27
2019-03-09T20:10:26.555Z,2.10
2019-03-09T20:12:58.304Z,2.77
2019-03-09T20:15:30.261Z,2.75
2019-03-09T20:18:02.118Z,2.58
2019-03-09T20:20:33.779Z,3.12
2019-03-09T20:23:05.190Z,4.10
2019-03-09T20:25:37.391Z,3.98
2019-03-09T20:28:09.267Z,2.55
2019-03-09T20:30:40.610Z,3.15
2019-03-09T20:33:11.625Z,2.92
2019-03-09T20:35:43.253Z,4.97
2019-03-09T20:38:15.265Z,1.60
2019-03-09T20:40:47.120Z,3.05
2019-03-09T20:43:19.081Z,2.65
2019-03-09T20:45:50.409Z,3.75
2019-03-09T20:48:22.068Z,1.95
2019-03-09T20:50:53.838Z,3.05
2019-03-09T20:53:25.143Z,2.55
2019-03-09T20:55:56.231Z,4.03
2019-03-09T20:58:28.014Z,3.77
2019-03-09T21:00:59.854Z,3.85
2019-03-09T21:03:31.474Z,2.90
2019-03-09T21:06:03.126Z,3.33
2019-03-09T21:08:34.698Z,2.55
2019-03-09T21:11:06.632Z,3.95
2019-03-09T21:13:38.219Z,1.82
2019-03-09T21:16:10.588Z,4.80
2019-03-09T21:18:42.074Z,3.47
2019-03-09T21:21:14.159Z,3.22
2019-03-09T21:23:46.061Z,2.98
2019-03-09T21:26:17.634Z,5.20
2019-03-09T21:28:48.639Z,4.78
2019-03-09T21:31:19.621Z,4.35
2019-03-09T21:33:51.132Z,1.35
2019-03-09T21:36:22.481Z,4.35
2019-03-09T21:38:54.416Z,3.20
2019-03-09T21:41:26.534Z,4.08
2019-03-09T21:43:57.970Z,2.98
2019-03-09T21:46:30.189Z,2.58
2019-03-09T21:49:01.477Z,3.20
2019-03-09T21:51:33.891Z,2.25
2019-03-09T21:54:05.177Z,3.08
2019-03-09T21:56:36.163Z,1.50
2019-03-09T21:59:07.988Z,1.45
2019-03-09T22:01:39.336Z,1.70
2019-03-09T22:04:10.965Z,2.70
2019-03-09T22:06:42.229Z,3.83
2019-03-09T22:09:14.812Z,2.75
2019-03-09T22:11:46.623Z,3.75
2019-03-09T22:14:18.214Z,3.30
2019-03-09T22:16:56.494Z,3.65
2019-03-09T22:19:22.616Z,4.00
2019-03-09T22:21:54.169Z,4.10
2019-03-09T22:24:25.744Z,3.62
2019-03-09T22:26:57.306Z,4.30
2019-03-09T22:29:29.144Z,3.98
2019-03-09T22:32:01.154Z,3.42
2019-03-09T22:34:32.435Z,2.67
2019-03-09T22:37:03.988Z,3.72
2019-03-09T22:39:35.543Z,4.72
2019-03-09T22:42:07.464Z,2.90
2019-03-09T22:44:38.484Z,5.75
2019-03-09T22:47:11.923Z,7.37
2019-03-09T22:49:43.615Z,6.47
2019-03-09T22:52:16.467Z,3.77
2019-03-09T22:54:48.389Z,5.78
2019-03-09T22:57:20.235Z,4.90
2019-03-09T22:59:51.595Z,3.62
2019-03-09T23:02:22.951Z,4.00
2019-03-09T23:04:54.790Z,4.92
2019-03-09T23:07:26.123Z,4.87
2019-03-09T23:09:59.935Z,4.75
2019-03-09T23:12:31.279Z,3.87
2019-03-09T23:15:02.910Z,7.05
2019-03-09T23:17:33.982Z,6.33
2019-03-09T23:20:06.470Z,5.45
2019-03-09T23:22:37.849Z,5.22
2019-03-09T23:25:10.027Z,5.92
2019-03-09T23:27:42.237Z,3.70
2019-03-09T23:30:16.867Z,2.98
2019-03-09T23:32:49.158Z,4.42
2019-03-09T23:35:20.751Z,5.40
2019-03-09T23:37:51.899Z,4.62
2019-03-09T23:40:23.450Z,5.17
2019-03-09T23:42:55.353Z,4.58
2019-03-09T23:45:27.042Z,4.33
2019-03-09T23:47:58.881Z,9.33
2019-03-09T23:50:30.819Z,7.70
2019-03-09T23:53:02.744Z,5.53
2019-03-09T23:55:33.976Z,3.80
2019-03-09T23:58:05.634Z,9.60
